KEKS

Ennis - Big Sky Airport

Ennis, Montana, USA
METAR KEKS 200655Z AUTO 00000KT 10SM FEW002 BKN005 OVC043 M27/M30 A2988 RMK AO2
Observed Flight Rules
Feb-20 @ 06:55 UTC (19 minutes ago) Instrument Flight Rules
Wind Visibility Clouds
Calm 10 miles
  • Few at 200' AGL
  • Broken at 500' AGL
  • Overcast at 4,300' AGL
Temperatures Readings
Current -27°C / -17°F
Dewpoint -30°C / -22°F
Humidity 76%
Altimeter 29.88" Hg
Pressure 1012 hPa
Elevation 1641
METAR KEKS 200655Z AUTO 00000KT 10SM FEW002 BKN005 OVC043 M27/M30 A2988 RMK AO2
Observed Flight Rules
Feb-20 @ 06:55 UTC
(19 minutes ago)
IFR
Wind Visibility
Calm 10 miles
Clouds
  • Few at 200' AGL
  • Broken at 500' AGL
  • Overcast at 4,300' AGL
Temperature Dewpoint
-27°C / -17°F -30°C / -22°F
Humidity Altimeter Pressure
76% 29.88" Hg 1012 hPa